Time;durP1;ratioP1;P1;durP2;ratioP2;P2;SDS_P1;SDS_P2;PMS_P1;PMS_P2;Temp;Humidity;BMP_temperature;BMP_pressure;BME280_temperature;BME280_humidity;BME280_pressure;Samples;Min_cycle;Max_cycle;Signal;HPM_P1;HPM_P2
2021/06/08 00:00:37;;;;;;;24.00;20.92;;;18.40;99.90;;;;;;4975195;28;20129;-78
2021/06/08 00:03:04;;;;;;;23.05;20.55;;;18.40;99.90;;;;;;4974711;28;20137;-77
2021/06/08 00:05:31;;;;;;;22.42;20.05;;;18.40;99.90;;;;;;4975228;28;20058;-78
2021/06/08 00:08:00;;;;;;;24.52;21.58;;;18.40;99.90;;;;;;4974855;28;20093;-77
2021/06/08 00:10:28;;;;;;;24.23;21.38;;;18.40;99.90;;;;;;4975343;28;20055;-77
2021/06/08 00:12:55;;;;;;;23.30;20.98;;;18.40;99.90;;;;;;4974522;28;20138;-76
2021/06/08 00:15:21;;;;;;;33.72;23.02;;;18.40;99.90;;;;;;4975339;28;20499;-77
2021/06/08 00:17:47;;;;;;;26.95;21.02;;;18.40;99.90;;;;;;4975229;28;20082;-78
2021/06/08 00:20:14;;;;;;;25.63;22.67;;;18.40;99.90;;;;;;4974251;28;20051;-78
2021/06/08 00:22:41;;;;;;;24.67;22.17;;;18.40;99.90;;;;;;4975138;28;20136;-77
2021/06/08 00:25:08;;;;;;;26.90;24.08;;;18.40;99.90;;;;;;4976816;28;20138;-79
2021/06/08 00:27:36;;;;;;;28.25;25.33;;;18.40;99.90;;;;;;4978147;28;20474;-79
2021/06/08 00:30:03;;;;;;;29.40;23.95;;;18.40;99.90;;;;;;4978137;28;20054;-79
2021/06/08 00:32:30;;;;;;;27.10;24.30;;;18.40;99.90;;;;;;4976491;28;20332;-78
2021/06/08 00:34:56;;;;;;;27.25;24.35;;;18.40;99.90;;;;;;4975612;28;20086;-79
2021/06/08 00:37:23;;;;;;;28.95;25.00;;;18.40;99.90;;;;;;4976969;28;20106;-79
2021/06/08 00:39:49;;;;;;;27.60;24.65;;;18.40;99.90;;;;;;4977413;28;20110;-80
2021/06/08 00:42:18;;;;;;;28.63;25.45;;;18.40;99.90;;;;;;4978191;28;20089;-79
2021/06/08 00:44:45;;;;;;;29.95;25.05;;;18.40;99.90;;;;;;4979835;28;20047;-79
2021/06/08 00:47:12;;;;;;;28.20;25.10;;;18.30;99.90;;;;;;4977750;28;20118;-79
2021/06/08 00:49:38;;;;;;;28.05;24.95;;;18.30;99.90;;;;;;4977808;28;20090;-79
2021/06/08 00:52:05;;;;;;;28.63;25.52;;;18.30;99.90;;;;;;4976543;28;20089;-79
2021/06/08 00:54:31;;;;;;;28.27;25.25;;;18.30;99.90;;;;;;4977565;28;20579;-80
2021/06/08 00:56:59;;;;;;;27.38;24.42;;;18.30;99.90;;;;;;4977051;28;20262;-78
2021/06/08 00:59:25;;;;;;;31.20;27.20;;;18.30;99.90;;;;;;4976788;28;20455;-79
2021/06/08 01:01:53;;;;;;;30.83;26.92;;;18.30;99.90;;;;;;4976779;28;20054;-79
2021/06/08 01:04:19;;;;;;;29.52;26.52;;;18.20;99.90;;;;;;4976668;28;20051;-78
2021/06/08 01:06:48;;;;;;;31.90;27.25;;;18.20;99.90;;;;;;4977499;28;20142;-79
2021/06/08 01:09:14;;;;;;;31.05;27.73;;;18.10;99.90;;;;;;4977616;28;20154;-80
2021/06/08 01:11:42;;;;;;;36.33;30.08;;;18.20;99.90;;;;;;4978020;28;20061;-79
2021/06/08 01:14:09;;;;;;;30.45;27.25;;;18.20;99.90;;;;;;4977930;28;20129;-80
2021/06/08 01:16:35;;;;;;;32.30;28.95;;;18.20;99.90;;;;;;4979338;28;20058;-80
2021/06/08 01:19:03;;;;;;;34.25;29.35;;;18.20;99.90;;;;;;4978639;28;20100;-80
2021/06/08 01:21:33;;;;;;;32.70;28.58;;;18.20;99.90;;;;;;4978329;28;20477;-78
2021/06/08 01:24:00;;;;;;;32.33;29.02;;;18.20;99.90;;;;;;4974847;28;20082;-80
2021/06/08 01:26:28;;;;;;;31.20;27.80;;;18.20;99.90;;;;;;4976241;28;20050;-78
2021/06/08 01:28:57;;;;;;;32.08;28.67;;;18.20;99.90;;;;;;4978554;28;20094;-80
2021/06/08 01:31:26;;;;;;;33.00;29.40;;;18.20;99.90;;;;;;4978226;28;20145;-80
2021/06/08 01:33:53;;;;;;;32.25;28.85;;;18.20;99.90;;;;;;4977719;28;20539;-79
2021/06/08 01:36:22;;;;;;;33.97;29.92;;;18.20;99.90;;;;;;4978332;28;20097;-79
2021/06/08 01:38:50;;;;;;;35.42;30.13;;;18.20;99.90;;;;;;4977686;28;20078;-79
2021/06/08 01:41:20;;;;;;;35.88;30.10;;;18.20;99.90;;;;;;4977881;28;20109;-80
2021/06/08 01:43:48;;;;;;;33.83;30.10;;;18.20;99.90;;;;;;4977923;28;20057;-80
2021/06/08 01:46:19;;;;;;;35.25;30.63;;;18.20;99.90;;;;;;4977624;28;20055;-79
2021/06/08 01:48:47;;;;;;;37.22;30.95;;;18.20;99.90;;;;;;4976163;28;20141;-78
2021/06/08 01:51:22;;;;;;;35.05;31.15;;;18.10;99.90;;;;;;4975343;28;20200;-79
2021/06/08 01:53:56;;;;;;;34.42;30.75;;;18.10;99.90;;;;;;4977048;28;20213;-81
2021/06/08 01:56:26;;;;;;;39.30;32.95;;;18.10;99.90;;;;;;4976421;28;20050;-78
2021/06/08 01:59:04;;;;;;;36.42;32.15;;;18.10;99.90;;;;;;4973332;28;20082;-78
2021/06/08 02:01:42;;;;;;;36.75;31.73;;;18.00;99.90;;;;;;4972905;28;20047;-77
2021/06/08 02:04:26;;;;;;;38.20;33.72;;;18.00;99.90;;;;;;4972342;28;20098;-78
2021/06/08 02:07:06;;;;;;;38.92;33.20;;;18.00;99.90;;;;;;4972463;28;20134;-78
2021/06/08 02:09:40;;;;;;;37.17;32.85;;;18.00;99.90;;;;;;4972967;28;20054;-77
2021/06/08 02:12:13;;;;;;;39.38;33.67;;;18.00;99.90;;;;;;4972710;28;20478;-79
2021/06/08 02:14:45;;;;;;;37.38;32.92;;;18.00;99.90;;;;;;4988962;23;20105;-78
2021/06/08 02:17:16;;;;;;;38.92;34.03;;;18.00;99.90;;;;;;4983771;28;20054;-78
2021/06/08 02:19:45;;;;;;;38.15;33.03;;;18.00;99.90;;;;;;4985871;28;20050;-78
2021/06/08 02:22:13;;;;;;;38.20;33.80;;;18.00;99.90;;;;;;4985227;28;20540;-78
2021/06/08 02:24:44;;;;;;;41.40;34.45;;;18.00;99.90;;;;;;4985445;28;20046;-79
2021/06/08 02:27:12;;;;;;;38.28;34.10;;;18.00;99.90;;;;;;4985529;28;20085;-79
2021/06/08 02:29:42;;;;;;;41.38;35.45;;;18.00;99.90;;;;;;4984381;28;20090;-78
2021/06/08 02:32:09;;;;;;;41.33;34.70;;;18.00;99.90;;;;;;4983273;28;20097;-80
2021/06/08 02:34:36;;;;;;;40.80;36.15;;;18.00;99.90;;;;;;4983186;28;20106;-80
2021/06/08 02:37:03;;;;;;;40.60;35.95;;;18.00;99.90;;;;;;4986932;28;20093;-80
2021/06/08 02:39:31;;;;;;;40.60;35.50;;;18.00;99.90;;;;;;4988605;28;20118;-78
2021/06/08 02:41:59;;;;;;;44.10;36.00;;;18.00;99.90;;;;;;4986870;28;20054;-79
2021/06/08 02:44:27;;;;;;;43.67;35.35;;;17.90;99.90;;;;;;4986362;28;20542;-79
2021/06/08 02:46:56;;;;;;;40.47;35.22;;;17.90;99.90;;;;;;4986715;28;20059;-80
2021/06/08 02:49:23;;;;;;;39.55;34.58;;;17.80;99.90;;;;;;4986591;28;20463;-80
2021/06/08 02:51:50;;;;;;;41.10;35.28;;;17.80;99.90;;;;;;4987002;28;20122;-78
2021/06/08 02:54:19;;;;;;;44.20;35.70;;;17.80;99.90;;;;;;4987236;28;20130;-80
2021/06/08 02:56:46;;;;;;;42.20;34.17;;;17.80;99.90;;;;;;4987603;28;20078;-80
2021/06/08 02:59:14;;;;;;;41.80;35.50;;;17.80;99.90;;;;;;4985596;28;20077;-80
2021/06/08 03:01:44;;;;;;;47.58;34.90;;;17.70;99.90;;;;;;4985864;28;20086;-80
2021/06/08 03:04:12;;;;;;;40.58;34.60;;;17.70;99.90;;;;;;4985817;28;20050;-80
2021/06/08 03:06:44;;;;;;;43.88;36.72;;;17.60;99.90;;;;;;4981668;28;20047;-79
2021/06/08 03:09:13;;;;;;;45.05;37.97;;;17.60;99.90;;;;;;4982729;28;20055;-78
2021/06/08 03:11:42;;;;;;;43.65;37.60;;;17.60;99.90;;;;;;4985688;28;20046;-77
2021/06/08 03:14:12;;;;;;;46.80;36.95;;;17.60;99.90;;;;;;4984403;28;20102;-78
2021/06/08 03:16:44;;;;;;;44.88;37.72;;;17.60;99.90;;;;;;4984872;28;20147;-78
2021/06/08 03:19:13;;;;;;;46.00;37.22;;;17.60;99.90;;;;;;4985101;28;20101;-78
2021/06/08 03:21:42;;;;;;;48.13;38.25;;;17.60;99.90;;;;;;4984702;28;20090;-79
2021/06/08 03:24:13;;;;;;;49.08;39.05;;;17.60;99.90;;;;;;4982654;28;20098;-79
2021/06/08 03:26:40;;;;;;;48.60;38.90;;;17.50;99.90;;;;;;4982063;28;20137;-79
2021/06/08 03:29:11;;;;;;;47.35;38.20;;;17.40;99.90;;;;;;4985517;28;20066;-79
2021/06/08 03:31:41;;;;;;;47.72;38.08;;;17.40;99.90;;;;;;4983923;28;20090;-79
2021/06/08 03:34:14;;;;;;;47.70;40.60;;;17.40;99.90;;;;;;4988174;28;20102;-78
2021/06/08 03:36:42;;;;;;;47.83;39.80;;;17.50;99.90;;;;;;4988526;28;20050;-78
2021/06/08 03:39:09;;;;;;;45.35;39.00;;;17.40;99.90;;;;;;4987399;28;20567;-78
2021/06/08 03:41:35;;;;;;;48.85;39.75;;;17.40;99.90;;;;;;4988215;28;20086;-78
2021/06/08 03:44:02;;;;;;;48.72;39.70;;;17.40;99.90;;;;;;4988746;28;20086;-78
2021/06/08 03:46:29;;;;;;;48.70;38.97;;;17.30;99.90;;;;;;4989012;28;20121;-79
2021/06/08 03:48:58;;;;;;;50.67;40.50;;;17.30;99.90;;;;;;4988798;28;20070;-78
2021/06/08 03:51:27;;;;;;;46.95;41.58;;;17.30;99.90;;;;;;4988915;28;20082;-78
2021/06/08 03:53:54;;;;;;;49.65;40.25;;;17.30;99.90;;;;;;4987203;28;20050;-78
2021/06/08 03:56:21;;;;;;;48.05;39.75;;;17.30;99.90;;;;;;4988396;28;20118;-78
2021/06/08 03:58:47;;;;;;;50.97;39.88;;;17.30;99.90;;;;;;4987594;28;20138;-78
2021/06/08 04:01:14;;;;;;;46.78;40.58;;;17.30;99.90;;;;;;4987490;28;20083;-79
2021/06/08 04:03:42;;;;;;;50.38;40.53;;;17.20;99.90;;;;;;4987610;28;20053;-79
2021/06/08 04:06:10;;;;;;;48.13;39.83;;;17.30;99.90;;;;;;4988642;28;20078;-79
2021/06/08 04:08:36;;;;;;;47.63;39.25;;;17.30;99.90;;;;;;4989814;28;20047;-79
2021/06/08 04:11:03;;;;;;;47.42;40.13;;;17.30;99.90;;;;;;4989869;28;20078;-79
2021/06/08 04:13:29;;;;;;;44.30;38.08;;;17.30;99.90;;;;;;4991963;28;20070;-79
2021/06/08 04:15:57;;;;;;;45.72;39.42;;;17.20;99.90;;;;;;4993600;28;20065;-79
2021/06/08 04:18:23;;;;;;;42.67;37.50;;;17.20;99.90;;;;;;4989916;28;20082;-79
2021/06/08 04:20:53;;;;;;;44.97;37.53;;;17.30;99.90;;;;;;4988900;28;20074;-78
2021/06/08 04:23:25;;;;;;;40.83;35.03;;;17.30;99.90;;;;;;4987848;28;20046;-78
2021/06/08 04:25:52;;;;;;;41.22;36.38;;;17.50;99.90;;;;;;4988479;28;20054;-78
2021/06/08 04:28:19;;;;;;;44.05;34.90;;;17.60;99.90;;;;;;4988514;28;20047;-79
2021/06/08 04:30:47;;;;;;;40.88;35.30;;;17.70;99.90;;;;;;4988133;28;20050;-79
2021/06/08 04:33:13;;;;;;;37.00;32.95;;;17.60;99.90;;;;;;4987900;28;20133;-79
2021/06/08 04:35:42;;;;;;;42.83;35.60;;;17.70;99.90;;;;;;4988437;28;20551;-79
2021/06/08 04:38:08;;;;;;;44.95;35.05;;;17.60;99.90;;;;;;4988661;28;20047;-79
2021/06/08 04:40:39;;;;;;;40.50;35.67;;;17.60;99.90;;;;;;4987028;28;20117;-79
2021/06/08 04:43:05;;;;;;;41.70;33.13;;;17.60;99.90;;;;;;4987760;28;20075;-78
2021/06/08 04:45:31;;;;;;;40.90;32.90;;;17.60;99.90;;;;;;4987561;28;20082;-79
2021/06/08 04:47:58;;;;;;;36.95;32.88;;;17.70;99.90;;;;;;4987531;28;20110;-78
2021/06/08 04:50:24;;;;;;;39.38;32.67;;;17.70;99.90;;;;;;4985043;28;20062;-79
2021/06/08 04:52:56;;;;;;;40.78;33.38;;;17.70;99.90;;;;;;4985340;28;20086;-79
2021/06/08 04:55:24;;;;;;;39.72;33.65;;;17.70;99.90;;;;;;4986922;28;20089;-78
2021/06/08 04:57:52;;;;;;;42.75;33.35;;;17.80;99.90;;;;;;4986328;28;20082;-79
2021/06/08 05:00:21;;;;;;;39.90;31.98;;;17.80;99.90;;;;;;4986117;28;20050;-79
2021/06/08 05:02:54;;;;;;;38.60;33.38;;;17.80;99.90;;;;;;4987132;28;20074;-79
2021/06/08 05:05:23;;;;;;;35.20;31.08;;;17.80;99.90;;;;;;4983710;28;20051;-81
2021/06/08 05:07:56;;;;;;;37.58;32.35;;;17.80;99.90;;;;;;4983231;28;20101;-80
2021/06/08 05:10:25;;;;;;;35.53;30.90;;;17.80;99.90;;;;;;4984964;28;20082;-79
2021/06/08 05:12:53;;;;;;;35.15;31.33;;;17.70;99.90;;;;;;4984640;28;20051;-77
2021/06/08 05:15:22;;;;;;;37.17;30.25;;;17.70;99.90;;;;;;4984940;28;20122;-79
2021/06/08 05:17:49;;;;;;;35.63;30.50;;;17.70;99.90;;;;;;4984748;28;20174;-80
2021/06/08 05:20:17;;;;;;;37.00;30.15;;;17.70;99.90;;;;;;4986494;28;20050;-80
2021/06/08 05:22:44;;;;;;;32.95;28.25;;;17.80;99.90;;;;;;4984931;28;20051;-80
2021/06/08 05:25:12;;;;;;;34.42;29.10;;;17.90;99.90;;;;;;4981557;28;20159;-80
2021/06/08 05:27:39;;;;;;;36.33;29.33;;;17.90;99.90;;;;;;4982468;28;20179;-80
2021/06/08 05:30:22;;;;;;;31.50;28.10;;;17.90;99.90;;;;;;4949719;28;20110;-81
2021/06/08 05:32:48;;;;;;;34.10;29.02;;;18.00;99.90;;;;;;4980105;28;20431;-79
2021/06/08 05:35:15;;;;;;;35.95;27.55;;;18.00;99.90;;;;;;4979476;28;20082;-81
2021/06/08 05:37:42;;;;;;;32.25;28.42;;;18.00;99.90;;;;;;4979025;28;20150;-80
2021/06/08 05:40:10;;;;;;;33.05;28.40;;;18.10;99.90;;;;;;4978814;28;20190;-80
2021/06/08 05:42:37;;;;;;;33.10;28.48;;;18.20;99.90;;;;;;4981422;28;20046;-80
2021/06/08 05:45:05;;;;;;;35.22;28.20;;;18.30;99.90;;;;;;4983452;28;20070;-81
2021/06/08 05:47:33;;;;;;;31.45;27.95;;;18.40;99.90;;;;;;4983583;28;20046;-81
2021/06/08 05:49:59;;;;;;;33.53;27.48;;;18.40;99.90;;;;;;4984969;28;20148;-80
2021/06/08 05:52:27;;;;;;;36.15;26.35;;;18.60;99.90;;;;;;4983303;28;20086;-82
2021/06/08 05:54:54;;;;;;;28.63;25.55;;;18.80;99.90;;;;;;4983032;28;20484;-80
2021/06/08 05:57:21;;;;;;;29.08;25.20;;;19.10;99.90;;;;;;4980099;28;20134;-79
2021/06/08 05:59:48;;;;;;;28.27;25.25;;;19.50;99.90;;;;;;4980296;28;20133;-78
2021/06/08 06:02:15;;;;;;;27.95;24.92;;;19.70;99.90;;;;;;4978683;28;20142;-78
2021/06/08 06:04:44;;;;;;;28.40;24.50;;;19.90;99.90;;;;;;4977586;28;20444;-78
2021/06/08 06:07:10;;;;;;;27.77;24.42;;;20.00;99.90;;;;;;4978013;28;20428;-78
2021/06/08 06:09:38;;;;;;;35.60;25.38;;;20.10;99.90;;;;;;4978827;28;20082;-78
2021/06/08 06:12:07;;;;;;;31.13;25.48;;;20.10;99.90;;;;;;4977877;28;20086;-77
2021/06/08 06:14:35;;;;;;;31.70;24.55;;;20.10;99.90;;;;;;4977622;28;20114;-78
2021/06/08 06:17:02;;;;;;;26.80;23.83;;;20.10;99.90;;;;;;4978423;28;20164;-78
2021/06/08 06:19:29;;;;;;;27.27;24.27;;;20.20;99.90;;;;;;4978194;28;20158;-78
2021/06/08 06:21:58;;;;;;;27.30;24.27;;;20.20;99.90;;;;;;4977539;28;20047;-78
2021/06/08 06:24:26;;;;;;;29.90;24.88;;;20.30;99.90;;;;;;4976632;28;20079;-78
2021/06/08 06:26:52;;;;;;;27.77;23.60;;;20.40;99.90;;;;;;4978022;28;20050;-78
2021/06/08 06:29:19;;;;;;;27.10;24.05;;;20.50;99.90;;;;;;4977078;28;20055;-77
2021/06/08 06:31:46;;;;;;;28.10;24.63;;;20.60;99.90;;;;;;4977374;28;20152;-77
2021/06/08 06:34:14;;;;;;;26.33;23.48;;;20.60;99.90;;;;;;4973038;28;20089;-77
2021/06/08 06:36:43;;;;;;;27.88;24.75;;;20.60;99.90;;;;;;4973575;28;20480;-77
2021/06/08 06:39:16;;;;;;;25.95;23.15;;;20.70;99.90;;;;;;4973342;28;20133;-77
2021/06/08 06:41:44;;;;;;;28.33;22.52;;;21.20;99.90;;;;;;4974132;28;20055;-77
2021/06/08 06:44:13;;;;;;;23.92;21.10;;;22.10;99.90;;;;;;4974174;28;20153;-77
2021/06/08 06:46:40;;;;;;;24.35;21.92;;;23.10;99.90;;;;;;4975004;28;20051;-77
2021/06/08 06:49:07;;;;;;;24.23;21.30;;;23.60;99.90;;;;;;4976325;28;20143;-77
2021/06/08 06:51:35;;;;;;;26.27;23.35;;;23.70;99.90;;;;;;4980906;28;20053;-79
2021/06/08 06:54:03;;;;;;;29.33;24.02;;;23.60;99.90;;;;;;4979036;28;20499;-78
2021/06/08 06:56:30;;;;;;;28.45;23.02;;;23.40;99.90;;;;;;4979246;28;20427;-77
2021/06/08 06:58:58;;;;;;;26.30;23.52;;;23.30;99.90;;;;;;4981049;28;20141;-78
2021/06/08 07:01:26;;;;;;;28.80;25.42;;;23.40;99.90;;;;;;4981528;28;20122;-78
2021/06/08 07:03:54;;;;;;;28.85;25.75;;;23.50;99.90;;;;;;4980807;28;20049;-78
2021/06/08 07:06:22;;;;;;;29.65;24.55;;;23.70;99.90;;;;;;4981064;28;20077;-79
2021/06/08 07:08:51;;;;;;;27.25;24.35;;;24.40;99.90;;;;;;4981227;28;20134;-79
2021/06/08 07:11:17;;;;;;;30.88;26.67;;;25.00;99.90;;;;;;4981974;28;20133;-79
2021/06/08 07:13:46;;;;;;;30.23;26.02;;;25.40;99.90;;;;;;4981579;28;20140;-78
2021/06/08 07:16:14;;;;;;;30.02;25.75;;;25.50;99.90;;;;;;4981669;28;20055;-79
2021/06/08 07:18:41;;;;;;;31.52;28.25;;;25.70;99.90;;;;;;4981329;28;20138;-80
2021/06/08 07:21:08;;;;;;;31.05;27.60;;;25.40;99.90;;;;;;4981366;28;20046;-81
2021/06/08 07:23:36;;;;;;;31.60;28.17;;;25.30;99.90;;;;;;4981023;28;20443;-80
2021/06/08 07:26:03;;;;;;;31.40;28.17;;;25.10;99.90;;;;;;4980778;28;20078;-79
2021/06/08 07:28:31;;;;;;;32.20;28.73;;;24.70;99.90;;;;;;4980838;28;20082;-80
2021/06/08 07:31:00;;;;;;;34.33;29.65;;;24.50;99.90;;;;;;4981282;28;20051;-80
2021/06/08 07:33:29;;;;;;;34.08;30.17;;;24.00;99.90;;;;;;4980760;28;20046;-78
2021/06/08 07:36:04;;;;;;;36.40;31.67;;;23.60;99.90;;;;;;4981740;28;20496;-79
2021/06/08 07:38:35;;;;;;;37.45;32.70;;;23.30;99.90;;;;;;4980790;28;20141;-78
2021/06/08 07:41:05;;;;;;;33.42;29.20;;;23.10;99.90;;;;;;4980957;28;20133;-77
2021/06/08 07:43:37;;;;;;;35.80;29.75;;;23.00;99.90;;;;;;4979099;28;20055;-75
2021/06/08 07:46:09;;;;;;;33.95;30.30;;;22.90;99.90;;;;;;4978483;28;20483;-77
2021/06/08 07:48:38;;;;;;;33.58;30.05;;;22.70;99.90;;;;;;4978490;28;20066;-78
2021/06/08 07:51:05;;;;;;;35.65;30.52;;;22.60;99.90;;;;;;4978449;28;20480;-78
2021/06/08 07:53:32;;;;;;;33.55;29.65;;;22.60;99.90;;;;;;4977266;28;20051;-76
2021/06/08 07:56:00;;;;;;;32.35;28.33;;;22.50;99.90;;;;;;4977471;28;20133;-78
2021/06/08 07:58:27;;;;;;;34.95;28.73;;;22.40;99.90;;;;;;4977696;28;20085;-76
2021/06/08 08:00:56;;;;;;;32.42;28.48;;;22.30;99.90;;;;;;4965798;28;20486;-77
2021/06/08 08:03:25;;;;;;;33.60;27.77;;;22.20;99.90;;;;;;4978122;28;20053;-77
2021/06/08 08:05:52;;;;;;;32.38;28.92;;;22.20;99.90;;;;;;4976734;28;20500;-78
2021/06/08 08:08:20;;;;;;;35.58;27.20;;;22.20;99.90;;;;;;4978179;28;20113;-77
2021/06/08 08:10:47;;;;;;;32.53;28.77;;;22.20;99.90;;;;;;4977866;28;20066;-77
2021/06/08 08:13:16;;;;;;;31.02;27.10;;;22.10;99.90;;;;;;4978486;28;20082;-77
2021/06/08 08:15:46;;;;;;;30.85;27.75;;;22.20;99.90;;;;;;4978111;28;20050;-77
2021/06/08 08:18:13;;;;;;;30.42;27.15;;;22.30;99.90;;;;;;4978010;28;20137;-76
2021/06/08 08:20:46;;;;;;;31.48;27.33;;;22.30;99.90;;;;;;4976508;28;20149;-76
2021/06/08 08:23:14;;;;;;;30.90;27.38;;;22.40;99.90;;;;;;4975965;28;20542;-76
2021/06/08 08:25:41;;;;;;;31.17;27.40;;;22.50;99.90;;;;;;4975411;28;20082;-76
2021/06/08 08:28:07;;;;;;;29.95;26.85;;;22.70;99.90;;;;;;4976478;28;20073;-75
2021/06/08 08:30:34;;;;;;;30.17;27.08;;;22.60;99.90;;;;;;4975772;28;20134;-76
2021/06/08 08:33:03;;;;;;;28.65;25.65;;;22.70;99.90;;;;;;4975171;28;20501;-76
2021/06/08 08:35:30;;;;;;;28.23;25.08;;;23.00;99.90;;;;;;4975820;28;20053;-75
2021/06/08 08:37:57;;;;;;;29.27;24.92;;;23.00;99.90;;;;;;4975459;28;20086;-75
2021/06/08 08:40:24;;;;;;;30.85;25.70;;;23.10;99.90;;;;;;4974615;28;20128;-76
2021/06/08 08:42:51;;;;;;;25.27;22.73;;;23.10;99.90;;;;;;4974948;28;20138;-76
2021/06/08 08:45:17;;;;;;;27.73;23.52;;;23.30;99.90;;;;;;4974587;28;20130;-77
2021/06/08 08:47:45;;;;;;;23.08;20.60;;;23.30;99.90;;;;;;4975722;28;20477;-77
2021/06/08 08:50:13;;;;;;;21.25;18.98;;;23.40;99.90;;;;;;4976356;28;20589;-76
2021/06/08 08:52:44;;;;;;;22.35;19.50;;;23.70;99.90;;;;;;4976254;28;20051;-77
2021/06/08 08:55:13;;;;;;;20.08;18.08;;;23.50;99.90;;;;;;4976652;28;20050;-77
2021/06/08 08:57:42;;;;;;;18.45;16.55;;;23.70;99.90;;;;;;4976471;28;20090;-76
2021/06/08 09:00:11;;;;;;;20.38;18.23;;;23.90;99.90;;;;;;4966738;28;20170;-76
2021/06/08 09:02:37;;;;;;;21.55;19.08;;;24.10;99.90;;;;;;4967620;28;20078;-77
2021/06/08 09:05:05;;;;;;;22.20;19.00;;;24.00;99.90;;;;;;4964741;28;20082;-78
2021/06/08 09:07:32;;;;;;;23.52;19.90;;;24.20;99.90;;;;;;4967741;28;20501;-78
2021/06/08 09:09:58;;;;;;;20.00;17.92;;;24.50;99.90;;;;;;4976468;28;20051;-78
2021/06/08 09:12:26;;;;;;;22.42;18.90;;;24.90;99.90;;;;;;4957945;28;20071;-78
2021/06/08 09:14:52;;;;;;;22.55;20.15;;;25.20;99.90;;;;;;4955250;29;20051;-77
2021/06/08 09:17:20;;;;;;;21.08;18.77;;;25.00;99.90;;;;;;4973485;28;20232;-77
2021/06/08 09:19:46;;;;;;;22.67;19.35;;;24.60;99.90;;;;;;4975787;28;20486;-75
2021/06/08 09:22:14;;;;;;;24.42;21.83;;;24.40;99.90;;;;;;4974998;28;20058;-76
2021/06/08 09:24:43;;;;;;;23.92;21.42;;;24.20;99.90;;;;;;4976166;28;20056;-77
2021/06/08 09:27:11;;;;;;;20.67;18.63;;;23.80;99.90;;;;;;4976288;28;20050;-78
2021/06/08 09:29:40;;;;;;;20.83;18.73;;;23.70;99.90;;;;;;4976673;28;20051;-77
2021/06/08 09:32:15;;;;;;;23.63;21.02;;;23.60;99.90;;;;;;4975125;28;20141;-77
2021/06/08 09:34:46;;;;;;;21.20;17.25;;;23.70;99.90;;;;;;4974803;28;20046;-77
2021/06/08 09:37:13;;;;;;;18.75;16.80;;;23.90;99.90;;;;;;4975631;28;20129;-78
2021/06/08 09:39:46;;;;;;;18.17;16.30;;;24.00;99.90;;;;;;4976290;28;20047;-78
2021/06/08 09:42:34;;;;;;;21.30;19.02;;;24.20;99.90;;;;;;4975666;28;20471;-78
2021/06/08 09:45:12;;;;;;;20.92;18.92;;;24.40;99.90;;;;;;4970721;28;20042;-78
2021/06/08 09:47:38;;;;;;;20.27;18.25;;;24.60;99.90;;;;;;4979002;28;20137;-79
2021/06/08 09:50:40;;;;;;;23.55;21.00;;;24.50;99.90;;;;;;4980392;28;20133;-77
2021/06/08 09:53:18;;;;;;;27.67;24.88;;;24.60;99.90;;;;;;4968681;28;20053;-78
2021/06/08 09:55:52;;;;;;;26.60;24.05;;;24.50;99.90;;;;;;4976278;28;20133;-77
2021/06/08 09:58:20;;;;;;;26.85;24.25;;;24.60;99.90;;;;;;4977950;28;20062;-77
2021/06/08 10:01:06;;;;;;;27.95;25.08;;;24.80;99.90;;;;;;4977729;28;20054;-77
2021/06/08 10:03:37;;;;;;;25.90;23.17;;;24.40;99.90;;;;;;4978400;28;20629;-78
2021/06/08 10:06:08;;;;;;;24.10;21.67;;;24.40;99.90;;;;;;4977749;28;20133;-78
2021/06/08 10:08:36;;;;;;;24.42;21.92;;;24.60;99.90;;;;;;4977256;28;20133;-78
2021/06/08 10:11:02;;;;;;;22.10;19.90;;;24.70;99.90;;;;;;4977563;28;20141;-78
2021/06/08 10:13:29;;;;;;;25.98;22.77;;;25.00;99.90;;;;;;4977121;28;20138;-79
2021/06/08 10:15:58;;;;;;;26.60;24.02;;;25.10;99.90;;;;;;4976991;28;20058;-77
2021/06/08 10:18:26;;;;;;;25.45;22.85;;;25.10;99.90;;;;;;4976434;28;20055;-78
2021/06/08 10:20:54;;;;;;;26.67;24.25;;;25.20;99.90;;;;;;4973868;28;20145;-78
2021/06/08 10:23:23;;;;;;;29.63;26.48;;;25.10;99.90;;;;;;4965972;28;20567;-77
2021/06/08 10:25:51;;;;;;;29.83;26.83;;;24.90;99.90;;;;;;4979015;28;20046;-77
2021/06/08 10:28:20;;;;;;;25.48;23.08;;;25.20;99.90;;;;;;5002458;23;20659;-80
2021/06/08 10:30:47;;;;;;;24.73;22.38;;;25.40;99.90;;;;;;5001094;28;20054;-79
2021/06/08 10:33:14;;;;;;;23.33;21.02;;;25.40;99.90;;;;;;4998485;28;20054;-78
2021/06/08 10:35:43;;;;;;;23.77;21.30;;;25.40;99.90;;;;;;4999780;28;20046;-79
2021/06/08 10:38:12;;;;;;;23.30;20.80;;;25.40;99.90;;;;;;4999796;28;20227;-78
2021/06/08 10:40:41;;;;;;;23.38;20.85;;;25.60;99.90;;;;;;5001259;28;20509;-78
2021/06/08 10:43:14;;;;;;;23.95;21.52;;;25.80;99.90;;;;;;4996805;28;20074;-78
2021/06/08 10:45:41;;;;;;;26.90;24.10;;;25.60;99.90;;;;;;4990981;28;20086;-78
2021/06/08 10:48:13;;;;;;;27.42;24.55;;;25.30;99.90;;;;;;4981002;28;20101;-78
2021/06/08 10:50:44;;;;;;;25.15;22.85;;;25.10;99.90;;;;;;4986575;28;20055;-79
2021/06/08 10:53:29;;;;;;;30.63;27.30;;;25.10;99.90;;;;;;4981844;28;20047;-78
2021/06/08 10:55:56;;;;;;;27.52;24.50;;;25.40;99.90;;;;;;4979247;28;20051;-76
2021/06/08 10:58:43;;;;;;;29.90;27.13;;;25.60;99.90;;;;;;4985475;28;20047;-77
2021/06/08 11:01:43;;;;;;;27.58;24.88;;;25.70;99.90;;;;;;4995822;28;20065;-77
2021/06/08 11:04:11;;;;;;;27.35;24.77;;;25.60;99.90;;;;;;4979179;28;20047;-76
2021/06/08 11:06:48;;;;;;;25.88;23.27;;;25.50;99.90;;;;;;4996300;28;20054;-77
2021/06/08 11:09:16;;;;;;;25.27;22.80;;;25.50;99.90;;;;;;4999457;28;20114;-78
2021/06/08 11:11:45;;;;;;;23.45;21.10;;;25.70;99.90;;;;;;4998927;28;20090;-78
2021/06/08 11:14:54;;;;;;;22.75;20.45;;;25.90;99.90;;;;;;4997789;28;20133;-77
2021/06/08 11:17:32;;;;;;;21.75;19.55;;;26.00;99.90;;;;;;4998167;28;20414;-78
2021/06/08 11:20:01;;;;;;;23.80;21.60;;;26.10;99.90;;;;;;4997956;28;20065;-77
2021/06/08 11:22:54;;;;;;;18.92;16.88;;;25.80;99.90;;;;;;4998482;28;20133;-78
2021/06/08 11:25:41;;;;;;;21.25;19.15;;;25.60;99.90;;;;;;4999225;28;20046;-77
2021/06/08 11:28:11;;;;;;;21.45;18.95;;;25.10;99.90;;;;;;4998202;28;20046;-77
2021/06/08 11:30:39;;;;;;;20.33;18.30;;;24.80;99.90;;;;;;4997913;28;20226;-78
2021/06/08 11:33:09;;;;;;;19.98;17.88;;;24.60;99.90;;;;;;4998362;28;20639;-77
2021/06/08 11:35:40;;;;;;;19.02;17.13;;;24.60;99.90;;;;;;4996407;28;20400;-76
2021/06/08 11:38:09;;;;;;;18.33;16.25;;;24.70;99.90;;;;;;4994918;28;20423;-77
2021/06/08 11:40:53;;;;;;;20.30;18.25;;;25.00;99.90;;;;;;4995218;28;20086;-77
2021/06/08 11:43:45;;;;;;;18.33;16.52;;;24.80;99.90;;;;;;4994281;28;20588;-78
2021/06/08 11:46:13;;;;;;;19.60;17.52;;;24.80;99.90;;;;;;4987510;28;20106;-78
2021/06/08 11:48:41;;;;;;;18.90;16.88;;;25.00;99.90;;;;;;4988013;28;20470;-78
2021/06/08 11:51:34;;;;;;;20.10;18.10;;;25.20;99.90;;;;;;4985321;28;20051;-77
2021/06/08 11:54:01;;;;;;;;;;;25.00;99.90;;;;;;4987441;28;20082;-76
2021/06/08 11:56:47;;;;;;;20.40;18.25;;;24.70;99.90;;;;;;4983786;28;20379;-78
2021/06/08 11:59:15;;;;;;;17.92;16.15;;;24.70;99.90;;;;;;4985547;28;20051;-77
2021/06/08 12:01:43;;;;;;;19.13;17.30;;;24.70;99.90;;;;;;4985373;28;20053;-79
2021/06/08 12:04:11;;;;;;;19.45;17.55;;;24.80;99.90;;;;;;4985671;28;20093;-79
2021/06/08 12:06:57;;;;;;;19.20;17.40;;;24.80;99.90;;;;;;4989594;28;20043;-79
2021/06/08 12:09:25;;;;;;;18.50;16.70;;;24.70;99.90;;;;;;4990300;28;20050;-79
2021/06/08 12:11:54;;;;;;;19.23;17.17;;;24.60;99.90;;;;;;4991204;28;20130;-79
2021/06/08 12:14:24;;;;;;;20.15;16.75;;;24.60;99.90;;;;;;4996924;28;20043;-76
2021/06/08 12:16:51;;;;;;;20.20;17.50;;;24.80;99.90;;;;;;4992025;28;20042;-78
2021/06/08 12:19:18;;;;;;;17.30;15.60;;;24.90;99.90;;;;;;4996414;28;20057;-78
2021/06/08 12:21:45;;;;;;;18.15;16.30;;;25.10;99.90;;;;;;4996044;28;20526;-78
2021/06/08 12:24:20;;;;;;;18.80;14.82;;;25.30;99.90;;;;;;4996486;28;20117;-79
2021/06/08 12:26:56;;;;;;;15.38;13.57;;;25.50;99.90;;;;;;4986636;28;20519;-79
2021/06/08 12:29:22;;;;;;;16.25;14.55;;;25.60;99.90;;;;;;4987596;28;20175;-79
2021/06/08 12:31:54;;;;;;;16.63;14.93;;;25.60;99.90;;;;;;4995032;28;20060;-78
2021/06/08 12:34:24;;;;;;;15.73;14.13;;;25.70;99.90;;;;;;4995583;28;20129;-79
2021/06/08 12:36:51;;;;;;;14.77;13.27;;;25.90;99.90;;;;;;4990290;28;20057;-80
2021/06/08 12:39:19;;;;;;;15.93;14.30;;;25.90;99.90;;;;;;4997709;28;20088;-80